createdAt,value
2022-10-14T00:02:26.586Z,14.95
2022-10-14T00:04:56.850Z,14.84
2022-10-14T00:07:26.659Z,14.96
2022-10-14T00:09:56.343Z,14.98
2022-10-14T00:12:26.080Z,14.93
2022-10-14T00:14:56.311Z,14.95
2022-10-14T00:17:28.942Z,14.94
2022-10-14T00:19:58.716Z,14.95
2022-10-14T00:22:28.855Z,14.98
2022-10-14T00:24:58.759Z,14.85
2022-10-14T00:27:28.524Z,14.63
2022-10-14T00:29:58.557Z,15.05
2022-10-14T00:32:30.866Z,14.87
2022-10-14T00:35:00.710Z,14.93
2022-10-14T00:37:33.164Z,14.65
2022-10-14T00:40:03.599Z,14.83
2022-10-14T00:42:35.598Z,14.86
2022-10-14T00:45:10.422Z,14.77
2022-10-14T00:47:43.307Z,14.94
2022-10-14T00:50:17.139Z,14.88
2022-10-14T00:52:47.811Z,14.88
2022-10-14T00:55:20.290Z,14.98
2022-10-14T00:57:50.081Z,14.91
2022-10-14T01:00:21.886Z,14.79
2022-10-14T01:02:54.277Z,14.88
2022-10-14T01:05:24.221Z,14.79
2022-10-14T01:08:06.230Z,14.94
2022-10-14T01:10:45.261Z,14.97
2022-10-14T01:13:26.625Z,14.96
2022-10-14T01:16:11.695Z,14.96
2022-10-14T01:18:59.595Z,15.02
2022-10-14T01:21:37.637Z,14.74
2022-10-14T01:24:35.838Z,15.08
2022-10-14T01:27:20.790Z,15.08
2022-10-14T01:30:24.177Z,15.06
2022-10-14T01:33:06.597Z,14.95
2022-10-14T01:35:51.582Z,15.03
2022-10-14T01:38:25.208Z,15.07
2022-10-14T01:40:59.755Z,15.03
2022-10-14T01:43:32.477Z,15.08
2022-10-14T01:46:08.267Z,15.10
2022-10-14T01:48:43.247Z,14.88
2022-10-14T01:51:19.082Z,14.98
2022-10-14T01:53:55.399Z,14.95
2022-10-14T01:56:27.756Z,14.85
2022-10-14T01:58:58.541Z,14.84
2022-10-14T02:01:30.984Z,14.94
2022-10-14T02:04:00.749Z,14.98
2022-10-14T02:06:36.491Z,15.03
2022-10-14T02:09:15.500Z,14.87
2022-10-14T02:11:58.801Z,14.93
2022-10-14T02:14:36.335Z,14.86
2022-10-14T02:17:14.173Z,14.84
2022-10-14T02:19:48.881Z,14.86
2022-10-14T02:22:27.627Z,14.82
2022-10-14T02:25:18.467Z,14.57
2022-10-14T02:27:51.787Z,14.71
2022-10-14T02:30:23.447Z,14.57
2022-10-14T02:33:03.837Z,14.71
2022-10-14T02:35:36.479Z,14.74
2022-10-14T02:38:08.433Z,14.69
2022-10-14T02:40:42.456Z,14.85
2022-10-14T02:43:13.825Z,14.86
2022-10-14T02:45:46.230Z,14.88
2022-10-14T02:48:18.705Z,14.88
2022-10-14T02:50:48.407Z,15.00
2022-10-14T02:53:19.511Z,15.06
2022-10-14T02:55:49.259Z,15.04
2022-10-14T02:58:19.070Z,14.95
2022-10-14T03:00:50.907Z,15.07
2022-10-14T03:03:24.495Z,15.02
2022-10-14T03:05:54.285Z,15.07
2022-10-14T03:08:24.645Z,15.01
2022-10-14T03:10:54.565Z,14.87
2022-10-14T03:13:25.499Z,14.90
2022-10-14T03:15:55.319Z,14.84
2022-10-14T03:18:27.669Z,14.90
2022-10-14T03:21:03.170Z,14.84
2022-10-14T03:23:39.105Z,14.75
2022-10-14T03:26:13.654Z,14.85
2022-10-14T03:28:46.316Z,14.87
2022-10-14T03:31:21.930Z,14.86
2022-10-14T03:34:32.353Z,14.74
2022-10-14T03:37:09.089Z,14.76
2022-10-14T03:39:47.478Z,14.43
2022-10-14T03:42:18.966Z,14.64
2022-10-14T03:44:50.936Z,14.02
2022-10-14T03:47:25.243Z,14.62
2022-10-14T03:49:57.568Z,14.64
2022-10-14T03:52:34.057Z,14.51
2022-10-14T03:55:10.243Z,14.56
2022-10-14T03:57:40.100Z,14.52
2022-10-14T04:00:12.749Z,14.44
2022-10-14T04:02:45.450Z,14.46
2022-10-14T04:05:40.270Z,14.40
2022-10-14T04:08:17.883Z,14.29
2022-10-14T04:10:56.616Z,14.32
2022-10-14T04:13:28.107Z,14.20
2022-10-14T04:15:57.841Z,14.32
2022-10-14T04:18:36.297Z,14.22
2022-10-14T04:21:13.017Z,14.23
2022-10-14T04:23:45.251Z,14.29
2022-10-14T04:26:19.051Z,14.30
2022-10-14T04:28:49.273Z,14.30
2022-10-14T04:31:33.293Z,14.38
2022-10-14T04:34:05.347Z,14.36
2022-10-14T04:36:42.864Z,14.33
2022-10-14T04:39:28.031Z,14.13
2022-10-14T04:41:58.456Z,14.21
2022-10-14T04:44:28.179Z,14.23
2022-10-14T04:46:58.006Z,14.16
2022-10-14T04:49:29.288Z,14.11
2022-10-14T04:52:14.427Z,14.17
2022-10-14T04:55:03.365Z,13.99
2022-10-14T04:57:40.402Z,14.13
2022-10-14T05:00:12.191Z,14.18
2022-10-14T05:03:02.887Z,14.16
2022-10-14T05:05:37.489Z,14.15
2022-10-14T05:08:11.531Z,14.29
2022-10-14T05:10:44.205Z,14.22
2022-10-14T05:13:20.778Z,14.22
2022-10-14T05:16:04.819Z,14.28
2022-10-14T05:18:36.703Z,14.35
2022-10-14T05:21:12.681Z,14.35
2022-10-14T05:24:11.107Z,14.38
2022-10-14T05:26:43.430Z,14.43
2022-10-14T05:29:16.100Z,14.44
2022-10-14T05:31:46.954Z,14.36
2022-10-14T05:34:27.937Z,14.47
2022-10-14T05:36:59.325Z,14.46
2022-10-14T05:39:35.057Z,14.47
2022-10-14T05:42:05.846Z,14.42
2022-10-14T05:44:39.050Z,14.42
2022-10-14T05:47:10.307Z,14.35
2022-10-14T05:49:40.473Z,14.43
2022-10-14T05:52:10.230Z,14.46
2022-10-14T05:54:42.628Z,14.50
2022-10-14T05:57:16.877Z,14.51
2022-10-14T05:59:46.671Z,14.49
2022-10-14T06:02:17.593Z,14.55
2022-10-14T06:04:47.471Z,14.54
2022-10-14T06:07:19.269Z,14.49
2022-10-14T06:09:54.296Z,14.45
2022-10-14T06:12:25.339Z,14.61
2022-10-14T06:14:55.540Z,14.63
2022-10-14T06:17:25.364Z,14.65
2022-10-14T06:19:56.061Z,14.45
2022-10-14T06:22:25.798Z,14.65
2022-10-14T06:25:01.821Z,14.65
2022-10-14T06:27:34.057Z,14.59
2022-10-14T06:30:03.852Z,14.59
2022-10-14T06:32:33.890Z,14.62
2022-10-14T06:35:03.952Z,14.65
2022-10-14T06:37:33.678Z,14.70
2022-10-14T06:40:06.504Z,14.74
2022-10-14T06:42:37.224Z,14.72
2022-10-14T06:45:09.318Z,14.76
2022-10-14T06:47:39.127Z,14.74
2022-10-14T06:50:10.101Z,14.75
2022-10-14T06:52:39.923Z,14.78
2022-10-14T06:55:12.678Z,14.87
2022-10-14T06:57:43.506Z,14.83
2022-10-14T07:00:14.230Z,14.88
2022-10-14T07:02:45.078Z,14.95
2022-10-14T07:05:17.339Z,14.98
2022-10-14T07:07:47.220Z,15.02
2022-10-14T07:10:19.783Z,15.09
2022-10-14T07:12:49.513Z,15.08
2022-10-14T07:15:19.498Z,15.04
2022-10-14T07:17:50.261Z,15.10
2022-10-14T07:20:20.229Z,15.15
2022-10-14T07:22:49.980Z,15.26
2022-10-14T07:25:22.412Z,15.36
2022-10-14T07:27:54.137Z,15.39
2022-10-14T07:30:24.133Z,15.37
2022-10-14T07:32:54.023Z,15.33
2022-10-14T07:35:25.707Z,15.50
2022-10-14T07:37:56.956Z,15.48
2022-10-14T07:40:29.830Z,15.43
2022-10-14T07:42:59.865Z,15.23
2022-10-14T07:45:35.210Z,15.17
2022-10-14T07:48:05.242Z,15.32
2022-10-14T07:50:35.026Z,15.32
2022-10-14T07:53:04.847Z,15.39
2022-10-14T07:55:37.225Z,15.41
2022-10-14T07:58:07.976Z,15.18
2022-10-14T08:00:37.832Z,15.24
2022-10-14T08:03:07.575Z,15.51
2022-10-14T08:05:38.878Z,15.53
2022-10-14T08:08:09.265Z,15.54
2022-10-14T08:10:42.239Z,15.46
2022-10-14T08:13:11.947Z,15.69
2022-10-14T08:15:43.742Z,15.85
2022-10-14T08:18:13.956Z,15.90
2022-10-14T08:20:43.734Z,16.02
2022-10-14T08:23:18.904Z,16.09
2022-10-14T08:25:53.403Z,15.88
2022-10-14T08:28:23.272Z,16.03
2022-10-14T08:30:54.081Z,16.07
2022-10-14T08:33:23.927Z,16.27
2022-10-14T08:35:54.826Z,16.35
2022-10-14T08:38:26.574Z,16.56
2022-10-14T08:41:10.341Z,16.57
2022-10-14T08:43:44.364Z,16.50
2022-10-14T08:46:22.995Z,16.30
2022-10-14T08:48:57.692Z,16.25
2022-10-14T08:51:27.937Z,16.10
2022-10-14T08:54:06.478Z,16.26
2022-10-14T08:56:40.584Z,16.35
2022-10-14T08:59:17.500Z,16.32
2022-10-14T09:01:54.577Z,16.39
2022-10-14T09:04:24.349Z,16.41
2022-10-14T09:06:56.677Z,16.47
2022-10-14T09:09:31.510Z,16.59
2022-10-14T09:12:07.761Z,16.66
2022-10-14T09:14:41.154Z,16.79
2022-10-14T09:17:17.315Z,16.84
2022-10-14T09:19:52.242Z,16.88
2022-10-14T09:22:22.488Z,16.75
2022-10-14T09:24:52.471Z,16.63
2022-10-14T09:27:25.830Z,16.53
2022-10-14T09:29:59.726Z,16.53
2022-10-14T09:32:32.867Z,16.61
2022-10-14T09:35:03.139Z,16.75
2022-10-14T09:37:35.370Z,16.86
2022-10-14T09:40:17.749Z,16.78
2022-10-14T09:42:53.867Z,16.86
2022-10-14T09:45:25.443Z,16.80
2022-10-14T09:47:58.277Z,16.96
2022-10-14T09:50:36.298Z,17.07
2022-10-14T09:53:11.032Z,17.18
2022-10-14T09:55:48.424Z,17.35
2022-10-14T09:58:25.013Z,17.75
2022-10-14T10:00:59.011Z,17.79
2022-10-14T10:03:32.692Z,17.77
2022-10-14T10:06:05.260Z,17.76
2022-10-14T10:08:35.832Z,17.77
2022-10-14T10:11:08.972Z,17.70
2022-10-14T10:13:45.324Z,17.81
2022-10-14T10:16:27.250Z,17.85
2022-10-14T10:19:01.265Z,17.84
2022-10-14T10:21:33.269Z,17.72
2022-10-14T10:24:06.087Z,17.76
2022-10-14T10:26:37.078Z,17.82
2022-10-14T10:29:11.663Z,17.84
2022-10-14T10:32:15.325Z,17.92
2022-10-14T10:35:00.439Z,17.91
2022-10-14T10:37:33.514Z,17.68
2022-10-14T10:40:33.115Z,17.65
2022-10-14T10:43:16.618Z,17.55
2022-10-14T10:46:00.263Z,17.58
2022-10-14T10:48:41.174Z,17.77
2022-10-14T10:51:15.622Z,18.00
2022-10-14T10:54:02.865Z,17.98
2022-10-14T10:56:38.918Z,17.98
2022-10-14T10:59:36.653Z,17.78
2022-10-14T11:02:38.225Z,17.82
2022-10-14T11:05:14.664Z,18.04
2022-10-14T11:08:08.772Z,18.25
2022-10-14T11:11:02.483Z,18.32
2022-10-14T11:13:45.403Z,18.36
2022-10-14T11:16:27.583Z,18.34
2022-10-14T11:19:11.017Z,18.20
2022-10-14T11:21:52.135Z,18.36
2022-10-14T11:24:30.749Z,18.41
2022-10-14T11:27:10.908Z,18.43
2022-10-14T11:30:14.829Z,18.41
2022-10-14T11:32:58.356Z,18.28
2022-10-14T11:35:40.767Z,18.28
2022-10-14T11:38:21.516Z,18.26
2022-10-14T11:40:59.975Z,18.38
2022-10-14T11:43:39.487Z,18.52
2022-10-14T11:46:12.806Z,18.82
2022-10-14T11:48:48.470Z,19.18
2022-10-14T11:51:26.333Z,19.50
2022-10-14T11:54:03.607Z,19.74
2022-10-14T11:56:45.860Z,19.64
2022-10-14T11:59:24.010Z,19.40
2022-10-14T12:02:01.442Z,19.35
2022-10-14T12:04:36.567Z,18.85
2022-10-14T12:07:15.895Z,18.91
2022-10-14T12:09:57.258Z,18.92
2022-10-14T12:12:31.980Z,19.22
2022-10-14T12:15:07.079Z,19.34
2022-10-14T12:17:41.509Z,19.41
2022-10-14T12:20:22.479Z,19.46
2022-10-14T12:22:55.882Z,19.34
2022-10-14T12:25:30.665Z,19.34
2022-10-14T12:28:00.914Z,19.37
2022-10-14T12:30:38.218Z,19.38
2022-10-14T12:33:10.319Z,19.35
2022-10-14T12:35:54.447Z,19.27
2022-10-14T12:38:29.552Z,19.13
2022-10-14T12:41:32.283Z,19.04
2022-10-14T12:44:04.133Z,19.05
2022-10-14T12:46:35.636Z,18.93
2022-10-14T12:49:05.529Z,19.14
2022-10-14T12:51:35.415Z,19.24
2022-10-14T12:54:17.782Z,19.26
2022-10-14T12:56:59.093Z,19.07
2022-10-14T12:59:33.078Z,19.31
2022-10-14T13:02:08.139Z,19.20
2022-10-14T13:04:40.018Z,19.32
2022-10-14T13:07:47.349Z,19.41
2022-10-14T13:10:48.547Z,19.28
2022-10-14T13:13:52.713Z,18.99
2022-10-14T13:17:13.414Z,19.00
2022-10-14T13:19:55.655Z,18.99
2022-10-14T13:22:42.311Z,19.12
2022-10-14T13:25:23.489Z,19.13
2022-10-14T13:28:05.433Z,19.12
2022-10-14T13:30:49.179Z,19.09
2022-10-14T13:33:25.437Z,19.11
2022-10-14T13:36:06.726Z,19.29
2022-10-14T13:38:40.733Z,19.22
2022-10-14T13:41:29.721Z,19.17
2022-10-14T13:44:02.639Z,19.07
2022-10-14T13:46:38.195Z,19.16
2022-10-14T13:49:20.742Z,19.04
2022-10-14T13:51:58.332Z,18.90
2022-10-14T13:54:32.111Z,18.81
2022-10-14T13:57:38.359Z,18.76
2022-10-14T14:02:53.359Z,19.01
2022-10-14T14:05:38.881Z,19.09
2022-10-14T14:11:18.188Z,19.27
2022-10-14T14:14:01.055Z,19.37
2022-10-14T14:16:36.560Z,19.40
2022-10-14T14:19:09.680Z,19.35
2022-10-14T14:21:42.125Z,19.39
2022-10-14T14:24:25.052Z,19.38
2022-10-14T14:26:59.193Z,19.36
2022-10-14T14:29:32.067Z,19.20
2022-10-14T14:32:07.935Z,19.31
2022-10-14T14:34:41.221Z,19.36
2022-10-14T14:37:40.307Z,19.44
2022-10-14T14:40:20.532Z,19.42
2022-10-14T14:42:56.054Z,19.38
2022-10-14T14:45:29.210Z,19.36
2022-10-14T14:48:04.671Z,19.27
2022-10-14T14:50:38.590Z,19.09
2022-10-14T14:53:13.635Z,18.85
2022-10-14T14:56:02.567Z,18.96
2022-10-14T14:58:37.138Z,18.99
2022-10-14T15:01:10.562Z,18.87
2022-10-14T15:04:11.946Z,18.75
2022-10-14T15:06:51.607Z,18.82
2022-10-14T15:09:26.763Z,19.05
2022-10-14T15:12:00.467Z,19.17
2022-10-14T15:14:33.002Z,19.14
2022-10-14T15:17:06.550Z,19.19
2022-10-14T15:19:38.770Z,19.16
2022-10-14T15:22:29.851Z,19.18
2022-10-14T15:25:13.078Z,19.19
2022-10-14T15:27:51.953Z,19.14
2022-10-14T15:30:35.038Z,19.14
2022-10-14T15:33:16.392Z,18.91
2022-10-14T15:35:47.707Z,18.79
2022-10-14T15:38:20.860Z,18.55
2022-10-14T15:40:52.665Z,18.40
2022-10-14T15:43:31.790Z,18.30
2022-10-14T15:46:15.296Z,18.37
2022-10-14T15:48:55.656Z,18.29
2022-10-14T15:51:26.244Z,18.23
2022-10-14T15:53:56.050Z,17.96
2022-10-14T15:56:26.260Z,17.97
2022-10-14T15:58:59.589Z,17.88
2022-10-14T16:01:29.574Z,17.91
2022-10-14T16:03:59.453Z,17.99
2022-10-14T16:06:31.062Z,17.74
2022-10-14T16:09:00.920Z,17.45
2022-10-14T16:11:32.639Z,17.48
2022-10-14T16:14:05.189Z,17.41
2022-10-14T16:16:38.974Z,17.33
2022-10-14T16:19:08.729Z,17.19
2022-10-14T16:21:39.043Z,17.05
2022-10-14T16:24:17.565Z,17.23
2022-10-14T16:26:48.959Z,17.06
2022-10-14T16:29:24.076Z,17.05
2022-10-14T16:31:55.420Z,16.99
2022-10-14T16:34:26.634Z,16.94
2022-10-14T16:36:57.378Z,16.89
2022-10-14T16:39:27.076Z,16.94
2022-10-14T16:41:57.061Z,16.85
2022-10-14T16:44:29.426Z,16.82
2022-10-14T16:47:13.426Z,16.83
2022-10-14T16:49:43.473Z,16.53
2022-10-14T16:52:14.587Z,16.72
2022-10-14T16:54:46.502Z,16.73
2022-10-14T16:57:16.670Z,16.56
2022-10-14T16:59:50.015Z,16.63
2022-10-14T17:02:21.488Z,16.47
2022-10-14T17:04:52.584Z,16.29
2022-10-14T17:07:22.253Z,16.35
2022-10-14T17:09:52.002Z,16.28
2022-10-14T17:12:22.969Z,16.13
2022-10-14T17:14:56.903Z,16.20
2022-10-14T17:17:27.745Z,16.20
2022-10-14T17:19:59.420Z,16.18
2022-10-14T17:22:29.846Z,16.28
2022-10-14T17:25:00.870Z,16.18
2022-10-14T17:27:31.591Z,16.23
2022-10-14T17:30:04.944Z,16.19
2022-10-14T17:32:34.665Z,16.33
2022-10-14T17:35:04.440Z,16.32
2022-10-14T17:37:34.135Z,16.42
2022-10-14T17:40:04.900Z,16.52
2022-10-14T17:42:35.591Z,16.54
2022-10-14T17:45:10.538Z,16.54
2022-10-14T17:47:41.355Z,16.41
2022-10-14T17:50:13.162Z,16.47
2022-10-14T17:52:43.889Z,16.30
2022-10-14T17:55:13.697Z,16.58
2022-10-14T17:57:44.423Z,16.57
2022-10-14T18:00:18.689Z,16.57
2022-10-14T18:02:48.348Z,16.57
2022-10-14T18:05:18.201Z,16.51
2022-10-14T18:07:48.964Z,16.59
2022-10-14T18:10:19.815Z,16.40
2022-10-14T18:12:50.481Z,16.36
2022-10-14T18:15:23.825Z,16.46
2022-10-14T18:17:53.476Z,16.49
2022-10-14T18:20:24.326Z,16.44
2022-10-14T18:22:54.359Z,16.29
2022-10-14T18:25:25.053Z,16.33
2022-10-14T18:27:55.783Z,16.39
2022-10-14T18:30:28.598Z,16.35
2022-10-14T18:32:59.497Z,16.43
2022-10-14T18:35:29.217Z,16.33
2022-10-14T18:37:59.955Z,16.41
2022-10-14T18:40:30.690Z,16.24
2022-10-14T18:43:04.130Z,16.30
2022-10-14T18:45:39.064Z,16.38
2022-10-14T18:48:11.652Z,16.52
2022-10-14T18:50:42.292Z,16.42
2022-10-14T18:53:12.954Z,16.44
2022-10-14T18:55:44.734Z,16.39
2022-10-14T18:58:14.459Z,16.31
2022-10-14T19:00:47.038Z,16.46
2022-10-14T19:03:17.121Z,16.36
2022-10-14T19:05:47.787Z,16.18
2022-10-14T19:08:17.484Z,16.14
2022-10-14T19:10:48.198Z,16.14
2022-10-14T19:13:18.953Z,16.20
2022-10-14T19:16:02.355Z,16.24
2022-10-14T19:18:32.251Z,16.08
2022-10-14T19:21:09.146Z,16.02
2022-10-14T19:23:39.803Z,16.17
2022-10-14T19:26:13.528Z,16.15
2022-10-14T19:28:44.846Z,16.13
2022-10-14T19:31:20.575Z,16.14
2022-10-14T19:33:51.090Z,16.17
2022-10-14T19:36:25.068Z,16.21
2022-10-14T19:38:57.619Z,16.15
2022-10-14T19:41:28.252Z,16.12
2022-10-14T19:43:59.952Z,16.21
2022-10-14T19:46:32.739Z,16.17
2022-10-14T19:49:04.944Z,16.18
2022-10-14T19:51:37.059Z,16.22
2022-10-14T19:54:08.200Z,16.18
2022-10-14T19:56:37.888Z,15.92
2022-10-14T19:59:07.819Z,16.15
2022-10-14T20:01:41.280Z,16.42
2022-10-14T20:04:11.204Z,16.40
2022-10-14T20:06:42.932Z,16.61
2022-10-14T20:09:15.211Z,16.77
2022-10-14T20:11:45.703Z,16.57
2022-10-14T20:14:18.499Z,16.64
2022-10-14T20:16:53.670Z,16.71
2022-10-14T20:19:27.792Z,16.68
2022-10-14T20:22:01.644Z,16.60
2022-10-14T20:24:31.481Z,16.59
2022-10-14T20:27:01.224Z,16.52
2022-10-14T20:29:31.036Z,16.64
2022-10-14T20:32:04.483Z,16.76
2022-10-14T20:34:35.361Z,16.79
2022-10-14T20:37:06.476Z,16.77
2022-10-14T20:39:36.369Z,16.68
2022-10-14T20:42:08.123Z,16.69
2022-10-14T20:44:39.009Z,16.82
2022-10-14T20:47:12.500Z,16.74
2022-10-14T20:49:42.912Z,16.68
2022-10-14T20:52:12.775Z,16.65
2022-10-14T20:54:43.670Z,16.69
2022-10-14T20:57:14.462Z,16.65
2022-10-14T20:59:44.241Z,16.42
2022-10-14T21:02:20.959Z,16.68
2022-10-14T21:04:53.090Z,16.67
2022-10-14T21:07:24.716Z,16.71
2022-10-14T21:09:55.776Z,16.69
2022-10-14T21:12:27.687Z,16.66
2022-10-14T21:14:58.475Z,16.71
2022-10-14T21:17:31.792Z,16.62
2022-10-14T21:20:02.620Z,16.29
2022-10-14T21:22:32.632Z,16.48
2022-10-14T21:25:03.476Z,16.58
2022-10-14T21:27:33.320Z,16.38
2022-10-14T21:30:04.112Z,16.53
2022-10-14T21:32:36.616Z,16.51
2022-10-14T21:35:08.908Z,16.46
2022-10-14T21:37:38.666Z,16.48
2022-10-14T21:40:10.270Z,16.42
2022-10-14T21:42:41.147Z,16.26
2022-10-14T21:45:11.508Z,16.50
2022-10-14T21:47:43.859Z,16.43
2022-10-14T21:50:14.578Z,16.51
2022-10-14T21:52:44.422Z,16.52
2022-10-14T21:55:14.216Z,16.51
2022-10-14T21:57:45.066Z,16.57
2022-10-14T22:00:16.088Z,16.59
2022-10-14T22:02:49.547Z,16.54
2022-10-14T22:05:19.314Z,16.52
2022-10-14T22:07:49.292Z,16.41
2022-10-14T22:10:31.672Z,16.40
2022-10-14T22:13:02.116Z,16.51
2022-10-14T22:15:31.830Z,16.54
2022-10-14T22:18:04.263Z,16.55
2022-10-14T22:20:34.169Z,16.39
2022-10-14T22:23:03.980Z,16.48
2022-10-14T22:25:35.816Z,16.50
2022-10-14T22:28:06.867Z,16.45
2022-10-14T22:30:37.459Z,16.52
2022-10-14T22:33:09.911Z,16.57
2022-10-14T22:35:39.723Z,16.56
2022-10-14T22:38:09.439Z,16.55
2022-10-14T22:40:39.307Z,16.48
2022-10-14T22:43:09.074Z,16.46
2022-10-14T22:45:39.052Z,16.47
2022-10-14T22:48:11.563Z,16.52
2022-10-14T22:50:41.261Z,16.43
2022-10-14T22:53:10.979Z,16.31
2022-10-14T22:55:40.682Z,16.25
2022-10-14T22:58:10.407Z,16.46
2022-10-14T23:00:40.185Z,16.66
2022-10-14T23:03:12.620Z,16.62
2022-10-14T23:05:42.404Z,16.58
2022-10-14T23:08:14.760Z,16.54
2022-10-14T23:10:45.093Z,16.42
2022-10-14T23:13:14.859Z,16.38
2022-10-14T23:15:44.574Z,16.30
2022-10-14T23:18:17.603Z,16.27
2022-10-14T23:20:47.327Z,16.20
2022-10-14T23:23:17.026Z,16.14
2022-10-14T23:25:47.614Z,16.23
2022-10-14T23:28:17.425Z,16.13
2022-10-14T23:30:47.216Z,16.05
2022-10-14T23:33:20.207Z,16.13
2022-10-14T23:35:49.942Z,16.14
2022-10-14T23:38:19.675Z,16.06
2022-10-14T23:40:49.373Z,16.08
2022-10-14T23:43:19.431Z,16.10
2022-10-14T23:45:49.173Z,16.10
2022-10-14T23:48:21.563Z,16.13
2022-10-14T23:50:51.289Z,16.08
2022-10-14T23:53:21.315Z,16.08
2022-10-14T23:55:51.742Z,16.05
2022-10-14T23:58:21.509Z,16.04
